»·PEaware :: N1128 KSEA-KGEG

N1128 :: KSEA-KGEG

FLIGHT INFORMATION

Flight Status: Arrived
Operator: Privately registered:
United States
More flights under this callsign
Pilot: Siddique N. (20419)
Aircraft: ECLIPSE 500
(EA50)
More flights by this aircraft type
Origin: KSEA Seattle-Tacoma Intl
United States
Destination: KGEG Spokane Intl
United States
More flights between these airports :: More routes between these airports
Route: +SEA7 ZADON ZELAK ZIRAN ZOOMR ZOOMR1
File this flight plan on PilotEdge
Remarks:
Altitude:
(Current/Filed)
17,000ft
Speed:
(Current/Filed)
265kts
Departed: 27-Oct-20 09:39 AM
Arrived: 27-Oct-20 10:29 AM
Distance/Time
Traveled:
194nm/0:49
Distance/Time
To Go:
Arrived

Flight Plot

Page will automatically refresh every two minutes.

Flight plan parsing failed; only flown route is shown


Map Options




Map Legend


Flown Route
Filed Route
Departure Airport
Arrival Airport
Navaid (VOR, NDB)
Fix

Horizontal Profiles

Position Reports

Time Latitude Longitude Heading Altitude Ground
Speed
27-Oct-20 09:25 47.439175 -122.315216 55 350ft 0kts
27-Oct-20 09:26 47.439175 -122.315216 55 350ft 0kts
27-Oct-20 09:27 47.439175 -122.315216 55 350ft 0kts
27-Oct-20 09:28 47.439175 -122.315216 55 350ft 0kts
27-Oct-20 09:29 47.439175 -122.315216 55 350ft 0kts
27-Oct-20 09:30 47.439175 -122.315216 55 350ft 0kts
27-Oct-20 09:31 47.439175 -122.315216 55 350ft 0kts
27-Oct-20 09:32 47.439175 -122.315216 55 350ft 0kts
27-Oct-20 09:33 47.439603 -122.314060 49 354ft 16kts
27-Oct-20 09:34 47.446403 -122.313520 0 381ft 28kts
27-Oct-20 09:35 47.454208 -122.313458 0 398ft 24kts
27-Oct-20 09:36 47.461897 -122.313424 1 387ft 26kts
27-Oct-20 09:37 47.463688 -122.316305 273 342ft 0kts
27-Oct-20 09:38 47.462626 -122.317865 180 329ft 41kts
27-Oct-20 09:39 47.425442 -122.313256 173 1872ft 178kts
27-Oct-20 09:40 47.374586 -122.299838 173 5279ft 195kts
27-Oct-20 09:41 47.325810 -122.268785 111 8352ft 227kts
27-Oct-20 09:42 47.364952 -122.187886 35 8508ft 262kts
27-Oct-20 09:43 47.419893 -122.122182 44 9619ft 243kts
27-Oct-20 09:44 47.451367 -122.033854 61 12660ft 248kts
27-Oct-20 09:45 47.483535 -121.938485 61 14506ft 293kts
27-Oct-20 09:46 47.528081 -121.816783 59 14512ft 364kts
27-Oct-20 09:47 47.562190 -121.684423 86 16376ft 315kts
27-Oct-20 09:48 47.562160 -121.544014 92 16564ft 364kts
27-Oct-20 09:49 47.559334 -121.388374 92 16567ft 382kts
27-Oct-20 09:50 47.556811 -121.232900 93 16562ft 376kts
27-Oct-20 09:51 47.554588 -121.078493 93 16563ft 373kts
27-Oct-20 09:52 47.552604 -120.925077 93 16564ft 373kts
27-Oct-20 09:53 47.549795 -120.771614 93 16519ft 374kts
27-Oct-20 09:54 47.546442 -120.615828 93 16324ft 384kts
27-Oct-20 09:55 47.543168 -120.457433 93 16323ft 382kts
27-Oct-20 09:56 47.537714 -120.302548 96 16383ft 374kts
27-Oct-20 09:57 47.531294 -120.152800 97 16776ft 362kts
27-Oct-20 09:58 47.524806 -120.006134 96 16777ft 353kts
27-Oct-20 09:59 47.518639 -119.861844 96 16779ft 350kts
27-Oct-20 10:00 47.511713 -119.718252 95 16753ft 350kts
27-Oct-20 10:01 47.504258 -119.575523 98 16753ft 348kts
27-Oct-20 10:02 47.495208 -119.433204 98 16754ft 348kts
27-Oct-20 10:03 47.486073 -119.289338 98 16749ft 354kts
27-Oct-20 10:04 47.476799 -119.143529 98 16750ft 357kts
27-Oct-20 10:05 47.470331 -118.997040 96 16750ft 356kts
27-Oct-20 10:06 47.463625 -118.852371 97 16751ft 349kts
27-Oct-20 10:07 47.455069 -118.708432 99 15976ft 365kts
27-Oct-20 10:08 47.443153 -118.558852 99 13988ft 364kts
27-Oct-20 10:09 47.434203 -118.418186 97 11985ft 309kts
27-Oct-20 10:10 47.428651 -118.302506 95 10802ft 255kts
27-Oct-20 10:11 47.447928 -118.204559 73 10804ft 251kts
27-Oct-20 10:12 47.469419 -118.104949 73 10804ft 255kts
27-Oct-20 10:13 47.485682 -118.001486 84 10016ft 270kts
27-Oct-20 10:14 47.495597 -117.893501 84 8810ft 256kts
27-Oct-20 10:15 47.505142 -117.787965 84 8805ft 260kts
27-Oct-20 10:16 47.514806 -117.680891 84 8806ft 263kts
27-Oct-20 10:17 47.537654 -117.578512 63 8806ft 261kts
27-Oct-20 10:18 47.569004 -117.481673 63 8807ft 259kts
27-Oct-20 10:19 47.616033 -117.401624 43 7345ft 249kts
27-Oct-20 10:20 47.661844 -117.331253 44 6805ft 234kts
27-Oct-20 10:21 47.707402 -117.261328 44 6805ft 236kts
27-Oct-20 10:22 47.759053 -117.220190 324 6073ft 216kts
27-Oct-20 10:23 47.765289 -117.293563 254 4802ft 170kts
27-Oct-20 10:24 47.742319 -117.348880 226 4668ft 166kts
27-Oct-20 10:25 47.708523 -117.398785 225 3973ft 165kts
27-Oct-20 10:26 47.677850 -117.447247 225 3558ft 164kts
27-Oct-20 10:27 47.644929 -117.497742 225 2667ft 165kts
27-Oct-20 10:28 47.621430 -117.532451 182 2356ft 8kts
27-Oct-20 10:29 47.620786 -117.531952 135 2357ft 6kts
27-Oct-20 10:30 47.618846 -117.530731 183 2363ft 6kts
27-Oct-20 10:31 47.618013 -117.530443 118 2366ft 7kts

Navigation Log

Ident Type
Flight plan parsing failed, navigation log unavailable